CheckWX is a tool to help pilots better visualize weather data.  It is not intended as a substitute for an official pre-flight weather briefing.

17:48:40 UTC

SBPB TAF
Prefeito Doutor João Silva Filho Airport
Parnaíba, Brazil
TAF SBPB 241000Z 2412/2424 07008KT 9999 FEW020 TX34/2417Z TN28/2421Z RMK PAY

May-24@
12:00 UTC

May-24 @ 12:00 UTC

May-25@
00:00 UTC

May-25 @ 00:00 UTC

TAF SBPB 241000Z 2412/2424 07008KT 9999 FEW020 TX34/2417Z TN28/2421Z RMK PAY
Wind
  • 070° at 8 KTS
Cloud Levels
  • Few at 2,000' AGL